createdAt,value
2022-07-31T00:01:21.436Z,57.77
2022-07-31T00:03:48.187Z,58.30
2022-07-31T00:06:15.158Z,58.22
2022-07-31T00:08:41.809Z,58.13
2022-07-31T00:11:11.716Z,58.05
2022-07-31T00:13:57.197Z,58.25
2022-07-31T00:16:25.741Z,57.82
2022-07-31T00:18:52.625Z,57.95
2022-07-31T00:21:19.543Z,57.97
2022-07-31T00:23:46.265Z,58.20
2022-07-31T00:26:12.967Z,57.79
2022-07-31T00:28:39.655Z,58.01
2022-07-31T00:31:06.436Z,58.35
2022-07-31T00:33:33.123Z,59.07
2022-07-31T00:35:59.854Z,59.34
2022-07-31T00:38:27.424Z,60.23
2022-07-31T00:40:54.718Z,60.69
2022-07-31T00:43:21.790Z,61.34
2022-07-31T00:45:56.258Z,61.88
2022-07-31T00:48:26.274Z,61.82
2022-07-31T00:50:54.637Z,62.01
2022-07-31T00:53:22.723Z,62.25
2022-07-31T00:55:51.480Z,63.29
2022-07-31T00:58:20.159Z,62.71
2022-07-31T01:00:47.223Z,63.77
2022-07-31T01:03:14.699Z,62.97
2022-07-31T01:05:41.924Z,63.50
2022-07-31T01:08:08.898Z,63.35
2022-07-31T01:11:03.196Z,62.92
2022-07-31T01:13:36.007Z,62.99
2022-07-31T01:16:05.076Z,62.69
2022-07-31T01:18:35.112Z,62.09
2022-07-31T01:21:06.459Z,61.24
2022-07-31T01:24:11.567Z,60.61
2022-07-31T01:26:48.616Z,60.96
2022-07-31T01:29:27.659Z,60.58
2022-07-31T01:32:13.697Z,60.40
2022-07-31T01:34:46.864Z,60.31
2022-07-31T01:37:27.769Z,60.46
2022-07-31T01:40:03.210Z,60.23
2022-07-31T01:42:31.851Z,59.83
2022-07-31T01:45:01.964Z,59.97
2022-07-31T01:47:31.193Z,60.51
2022-07-31T01:49:58.747Z,60.20
2022-07-31T01:52:28.491Z,60.23
2022-07-31T01:54:57.061Z,59.37
2022-07-31T01:57:24.746Z,58.83
2022-07-31T01:59:56.366Z,59.50
2022-07-31T02:02:25.427Z,59.29
2022-07-31T02:04:53.839Z,58.94
2022-07-31T02:07:22.060Z,59.81
2022-07-31T02:09:58.240Z,59.53
2022-07-31T02:12:32.215Z,59.30
2022-07-31T02:15:02.190Z,59.60
2022-07-31T02:17:29.134Z,59.29
2022-07-31T02:20:00.147Z,60.04
2022-07-31T02:22:27.963Z,59.16
2022-07-31T02:24:54.934Z,59.13
2022-07-31T02:27:54.586Z,59.65
2022-07-31T02:30:12.609Z,59.65
2022-07-31T02:32:41.027Z,60.24
2022-07-31T02:35:08.993Z,60.86
2022-07-31T02:37:37.950Z,61.82
2022-07-31T02:40:06.000Z,63.47
2022-07-31T02:42:32.963Z,63.57
2022-07-31T02:45:02.085Z,65.78
2022-07-31T02:47:29.541Z,66.29
2022-07-31T02:49:58.101Z,66.06
2022-07-31T02:52:25.560Z,66.78
2022-07-31T02:54:52.912Z,66.09
2022-07-31T02:57:19.717Z,66.50
2022-07-31T02:59:46.556Z,67.70
2022-07-31T03:02:13.385Z,68.75
2022-07-31T03:04:40.134Z,69.88
2022-07-31T03:07:06.979Z,70.61
2022-07-31T03:09:33.773Z,69.69
2022-07-31T03:12:01.831Z,70.77
2022-07-31T03:14:33.098Z,70.49
2022-07-31T03:17:00.610Z,71.09
2022-07-31T03:19:28.957Z,71.52
2022-07-31T03:21:56.485Z,70.92
2022-07-31T03:24:24.810Z,71.23
2022-07-31T03:26:51.597Z,71.75
2022-07-31T03:29:41.818Z,72.11
2022-07-31T03:32:06.585Z,70.29
2022-07-31T03:34:33.825Z,70.22
2022-07-31T03:37:00.520Z,69.90
2022-07-31T03:39:27.212Z,71.13
2022-07-31T03:41:56.884Z,72.34
2022-07-31T03:44:24.991Z,72.40
2022-07-31T03:46:52.617Z,73.39
2022-07-31T03:49:20.202Z,73.67
2022-07-31T03:51:47.072Z,73.39
2022-07-31T03:54:13.842Z,72.72
2022-07-31T03:56:44.978Z,70.67
2022-07-31T03:59:14.163Z,70.10
2022-07-31T04:01:57.911Z,69.97
2022-07-31T04:04:25.650Z,69.00
2022-07-31T04:06:52.895Z,69.42
2022-07-31T04:09:20.555Z,69.26
2022-07-31T04:11:47.215Z,69.22
2022-07-31T04:14:13.868Z,69.50
2022-07-31T04:16:40.514Z,68.33
2022-07-31T04:19:07.240Z,68.79
2022-07-31T04:21:34.078Z,67.71
2022-07-31T04:24:01.636Z,65.71
2022-07-31T04:26:29.288Z,65.43
2022-07-31T04:28:55.962Z,66.33
2022-07-31T04:31:24.006Z,66.70
2022-07-31T04:33:55.937Z,66.72
2022-07-31T04:36:29.779Z,67.40
2022-07-31T04:38:56.938Z,67.52
2022-07-31T04:41:23.708Z,67.16
2022-07-31T04:43:50.343Z,67.57
2022-07-31T04:46:17.846Z,67.91
2022-07-31T04:48:45.074Z,66.85
2022-07-31T04:51:19.910Z,67.26
2022-07-31T04:53:47.267Z,67.50
2022-07-31T04:56:32.977Z,67.88
2022-07-31T04:59:01.880Z,67.51
2022-07-31T05:01:28.671Z,67.57
2022-07-31T05:03:55.403Z,68.15
2022-07-31T05:06:22.528Z,67.81
2022-07-31T05:08:49.231Z,68.30
2022-07-31T05:11:24.790Z,67.18
2022-07-31T05:13:56.792Z,68.12
2022-07-31T05:16:24.117Z,66.44
2022-07-31T05:18:54.435Z,64.29
2022-07-31T05:21:21.697Z,63.48
2022-07-31T05:23:49.573Z,62.80
2022-07-31T05:26:18.029Z,61.82
2022-07-31T05:28:46.630Z,60.22
2022-07-31T05:31:13.637Z,59.05
2022-07-31T05:33:40.328Z,58.91
2022-07-31T05:36:07.428Z,58.14
2022-07-31T05:38:34.592Z,58.56
2022-07-31T05:41:01.449Z,55.74
2022-07-31T05:43:28.265Z,55.74
2022-07-31T05:45:55.880Z,60.01
2022-07-31T05:48:23.338Z,57.24
2022-07-31T05:50:51.500Z,52.55
2022-07-31T05:53:20.575Z,52.21
2022-07-31T05:55:48.889Z,50.95
2022-07-31T05:58:17.700Z,51.56
2022-07-31T06:00:46.413Z,52.64
2022-07-31T06:03:13.529Z,53.48
2022-07-31T06:05:41.472Z,50.06
2022-07-31T06:08:09.949Z,51.49
2022-07-31T06:10:37.618Z,50.61
2022-07-31T06:13:05.272Z,51.15
2022-07-31T06:15:36.082Z,51.38
2022-07-31T06:18:03.865Z,53.74
2022-07-31T06:20:30.893Z,52.64
2022-07-31T06:22:57.647Z,50.08
2022-07-31T06:25:30.955Z,50.29
2022-07-31T06:28:05.247Z,49.45
2022-07-31T06:30:37.213Z,47.09
2022-07-31T06:33:08.446Z,47.17
2022-07-31T06:35:35.335Z,46.07
2022-07-31T06:38:02.017Z,46.77
2022-07-31T06:40:28.677Z,46.63
2022-07-31T06:42:55.620Z,45.97
2022-07-31T06:45:48.567Z,47.74
2022-07-31T06:48:15.211Z,45.94
2022-07-31T06:50:41.903Z,45.70
2022-07-31T06:53:08.593Z,46.93
2022-07-31T06:55:35.311Z,46.27
2022-07-31T06:58:01.983Z,46.50
2022-07-31T07:00:29.312Z,48.41
2022-07-31T07:02:56.184Z,48.34
2022-07-31T07:05:22.886Z,48.12
2022-07-31T07:07:49.537Z,45.84
2022-07-31T07:10:16.296Z,45.01
2022-07-31T07:12:42.988Z,45.07
2022-07-31T07:15:10.274Z,46.33
2022-07-31T07:17:36.969Z,45.98
2022-07-31T07:20:04.133Z,45.24
2022-07-31T07:22:32.773Z,44.71
2022-07-31T07:25:01.145Z,44.55
2022-07-31T07:27:27.950Z,44.74
2022-07-31T07:29:54.581Z,44.35
2022-07-31T07:32:22.686Z,40.93
2022-07-31T07:34:49.356Z,40.81
2022-07-31T07:37:27.103Z,43.28
2022-07-31T07:39:53.778Z,43.18
2022-07-31T07:42:20.518Z,39.69
2022-07-31T07:44:47.183Z,41.72
2022-07-31T07:47:13.812Z,40.39
2022-07-31T07:49:40.549Z,41.42
2022-07-31T07:52:07.426Z,40.86
2022-07-31T07:54:34.096Z,40.71
2022-07-31T07:57:00.832Z,38.41
2022-07-31T07:59:27.600Z,37.89
2022-07-31T08:01:54.229Z,36.02
2022-07-31T08:04:20.861Z,35.47
2022-07-31T08:06:47.589Z,35.75
2022-07-31T08:09:15.484Z,36.20
2022-07-31T08:11:42.227Z,37.50
2022-07-31T08:14:09.143Z,37.72
2022-07-31T08:16:35.988Z,38.19
2022-07-31T08:19:02.717Z,36.87
2022-07-31T08:21:29.497Z,36.55
2022-07-31T08:23:56.202Z,36.07
2022-07-31T08:26:23.024Z,35.29
2022-07-31T08:28:54.140Z,36.09
2022-07-31T08:31:22.800Z,35.99
2022-07-31T08:33:49.520Z,35.68
2022-07-31T08:36:37.985Z,37.35
2022-07-31T08:39:05.175Z,36.54
2022-07-31T08:41:38.971Z,36.10
2022-07-31T08:44:09.541Z,34.51
2022-07-31T08:46:40.528Z,35.66
2022-07-31T08:49:09.925Z,36.18
2022-07-31T08:51:50.871Z,36.93
2022-07-31T08:54:20.251Z,35.78
2022-07-31T08:56:52.351Z,36.45
2022-07-31T08:59:19.868Z,36.59
2022-07-31T09:01:46.604Z,36.86
2022-07-31T09:04:15.786Z,36.22
2022-07-31T09:06:42.482Z,35.31
2022-07-31T09:09:09.236Z,37.00
2022-07-31T09:11:47.368Z,36.03
2022-07-31T09:14:16.244Z,36.67
2022-07-31T09:16:47.722Z,36.94
2022-07-31T09:19:51.982Z,36.37
2022-07-31T09:22:01.636Z,35.66
2022-07-31T09:24:31.580Z,35.28
2022-07-31T09:27:09.454Z,34.95
2022-07-31T09:29:40.772Z,35.62
2022-07-31T09:32:15.060Z,34.54
2022-07-31T09:34:43.149Z,34.21
2022-07-31T09:37:10.870Z,35.28
2022-07-31T09:39:38.348Z,35.43
2022-07-31T09:42:20.104Z,34.90
2022-07-31T09:44:48.852Z,35.02
2022-07-31T09:47:27.004Z,34.84
2022-07-31T09:49:59.823Z,35.29
2022-07-31T09:52:28.728Z,35.12
2022-07-31T09:55:15.848Z,37.11
2022-07-31T09:58:00.662Z,35.03
2022-07-31T10:00:27.768Z,34.12
2022-07-31T10:02:56.674Z,33.96
2022-07-31T10:05:25.955Z,33.51
2022-07-31T10:07:56.908Z,32.85
2022-07-31T10:10:24.299Z,34.56
2022-07-31T10:12:54.235Z,33.34
2022-07-31T10:15:23.231Z,33.61
2022-07-31T10:17:52.290Z,33.83
2022-07-31T10:20:24.392Z,32.92
2022-07-31T10:22:59.455Z,34.23
2022-07-31T10:25:29.402Z,33.19
2022-07-31T10:27:59.940Z,32.82
2022-07-31T10:30:28.515Z,32.83
2022-07-31T10:32:56.367Z,32.96
2022-07-31T10:35:23.261Z,33.65
2022-07-31T10:38:15.327Z,32.58
2022-07-31T10:40:43.933Z,34.36
2022-07-31T10:43:20.494Z,34.11
2022-07-31T10:45:49.697Z,33.83
2022-07-31T10:48:17.282Z,33.25
2022-07-31T10:50:45.234Z,34.83
2022-07-31T10:53:15.346Z,33.28
2022-07-31T10:55:42.232Z,33.59
2022-07-31T10:58:14.130Z,33.54
2022-07-31T11:00:40.997Z,34.16
2022-07-31T11:03:15.993Z,35.98
2022-07-31T11:06:01.930Z,35.79
2022-07-31T11:08:40.251Z,36.34
2022-07-31T11:11:06.918Z,36.53
2022-07-31T11:13:44.474Z,37.95
2022-07-31T11:16:11.195Z,41.44
2022-07-31T11:18:38.091Z,44.87
2022-07-31T11:21:37.983Z,46.00
2022-07-31T11:23:56.108Z,45.53
2022-07-31T11:26:33.114Z,45.44
2022-07-31T11:30:00.379Z,46.92
2022-07-31T11:31:55.243Z,46.66
2022-07-31T11:34:22.171Z,47.65
2022-07-31T11:36:51.615Z,46.90
2022-07-31T11:39:18.813Z,44.58
2022-07-31T11:41:52.809Z,46.17
2022-07-31T11:44:22.821Z,47.21
2022-07-31T11:46:53.729Z,48.68
2022-07-31T11:49:41.687Z,49.08
2022-07-31T11:52:30.968Z,48.43
2022-07-31T11:55:09.640Z,48.48
2022-07-31T11:57:50.370Z,48.47
2022-07-31T12:00:27.062Z,49.21
2022-07-31T12:02:58.272Z,48.12
2022-07-31T12:05:37.657Z,49.61
2022-07-31T12:08:06.848Z,49.57
2022-07-31T12:10:33.638Z,49.28
2022-07-31T12:13:02.056Z,50.15
2022-07-31T12:15:28.748Z,49.63
2022-07-31T12:18:05.470Z,49.13
2022-07-31T12:20:37.060Z,49.92
2022-07-31T12:23:05.871Z,49.00
2022-07-31T12:25:45.730Z,49.43
2022-07-31T12:28:16.016Z,49.54
2022-07-31T12:30:43.511Z,48.99
2022-07-31T12:33:11.934Z,47.54
2022-07-31T12:35:54.916Z,46.24
2022-07-31T12:38:47.851Z,45.35
2022-07-31T12:41:13.976Z,44.52
2022-07-31T12:43:51.098Z,42.31
2022-07-31T12:46:36.146Z,40.90
2022-07-31T12:49:04.518Z,41.84
2022-07-31T12:51:45.819Z,41.89
2022-07-31T12:54:15.277Z,42.90
2022-07-31T12:56:43.017Z,41.39
2022-07-31T12:59:10.808Z,41.00
2022-07-31T13:01:38.271Z,41.05
2022-07-31T13:04:07.880Z,41.59
2022-07-31T13:06:44.810Z,43.40
2022-07-31T13:09:11.495Z,43.55
2022-07-31T13:11:46.278Z,43.69
2022-07-31T13:14:19.025Z,44.28
2022-07-31T13:16:46.919Z,42.67
2022-07-31T13:19:14.340Z,43.35
2022-07-31T13:21:48.953Z,43.85
2022-07-31T13:24:18.281Z,43.35
2022-07-31T13:26:45.371Z,43.85
2022-07-31T13:29:13.095Z,44.58
2022-07-31T13:31:40.140Z,44.45
2022-07-31T13:34:06.878Z,44.47
2022-07-31T13:36:38.622Z,43.94
2022-07-31T13:39:07.146Z,43.43
2022-07-31T13:41:35.669Z,42.82
2022-07-31T13:44:03.623Z,42.62
2022-07-31T13:46:31.662Z,41.75
2022-07-31T13:48:59.674Z,40.86
2022-07-31T13:51:29.276Z,40.90
2022-07-31T13:53:56.262Z,40.58
2022-07-31T13:56:39.088Z,41.20
2022-07-31T13:59:09.743Z,40.43
2022-07-31T14:02:04.537Z,40.00
2022-07-31T14:04:24.965Z,40.13
2022-07-31T14:06:51.792Z,40.69
2022-07-31T14:09:19.516Z,41.30
2022-07-31T14:11:46.294Z,40.19
2022-07-31T14:14:15.197Z,40.16
2022-07-31T14:16:49.570Z,40.12
2022-07-31T14:19:16.679Z,39.70
2022-07-31T14:21:55.930Z,40.76
2022-07-31T14:24:25.237Z,40.78
2022-07-31T14:26:51.973Z,40.00
2022-07-31T14:29:18.735Z,40.00
2022-07-31T14:31:45.527Z,39.21
2022-07-31T14:34:12.230Z,39.68
2022-07-31T14:36:38.921Z,40.47
2022-07-31T14:39:05.584Z,40.36
2022-07-31T14:41:32.248Z,40.47
2022-07-31T14:43:58.969Z,40.95
2022-07-31T14:46:25.741Z,40.86
2022-07-31T14:48:52.519Z,40.93
2022-07-31T14:51:19.774Z,41.10
2022-07-31T14:53:46.910Z,40.76
2022-07-31T14:56:15.103Z,40.52
2022-07-31T14:58:57.640Z,41.32
2022-07-31T15:01:26.867Z,40.15
2022-07-31T15:03:57.958Z,40.63
2022-07-31T15:06:41.879Z,41.89
2022-07-31T15:09:11.471Z,41.90
2022-07-31T15:12:00.336Z,43.32
2022-07-31T15:14:24.857Z,43.93
2022-07-31T15:16:51.611Z,45.46
2022-07-31T15:19:18.387Z,55.54
2022-07-31T15:22:16.655Z,55.54
2022-07-31T15:24:32.857Z,76.58
2022-07-31T15:26:59.822Z,78.35
2022-07-31T15:30:03.301Z,82.27
2022-07-31T15:32:13.630Z,83.84
2022-07-31T15:34:40.291Z,82.78
2022-07-31T15:37:07.794Z,84.06
2022-07-31T15:39:34.723Z,84.46
2022-07-31T15:42:02.413Z,85.00
2022-07-31T15:44:29.187Z,86.94
2022-07-31T15:46:55.943Z,88.35
2022-07-31T15:49:22.815Z,87.75
2022-07-31T15:51:49.621Z,89.52
2022-07-31T15:54:16.368Z,89.27
2022-07-31T15:56:43.055Z,90.49
2022-07-31T15:59:09.719Z,89.55
2022-07-31T16:01:37.727Z,92.37
2022-07-31T16:04:16.455Z,92.42
2022-07-31T16:06:49.061Z,91.68
2022-07-31T16:09:17.287Z,92.00
2022-07-31T16:12:04.280Z,91.90
2022-07-31T16:14:30.654Z,91.08
2022-07-31T16:16:57.533Z,91.36
2022-07-31T16:19:25.227Z,91.96
2022-07-31T16:21:55.436Z,91.83
2022-07-31T16:24:22.767Z,92.16
2022-07-31T16:26:50.350Z,92.37
2022-07-31T16:29:17.803Z,91.95
2022-07-31T16:32:04.166Z,89.70
2022-07-31T16:34:30.895Z,91.01
2022-07-31T16:36:57.655Z,93.01
2022-07-31T16:39:24.386Z,88.68
2022-07-31T16:41:54.338Z,89.35
2022-07-31T16:44:22.035Z,88.83
2022-07-31T16:46:54.226Z,92.26
2022-07-31T16:49:35.394Z,94.50
2022-07-31T16:52:03.372Z,95.08
2022-07-31T16:54:30.025Z,96.83
2022-07-31T16:56:56.718Z,96.52
2022-07-31T16:59:23.437Z,98.03
2022-07-31T17:01:53.753Z,99.00
2022-07-31T17:04:27.494Z,96.62
2022-07-31T17:06:54.655Z,97.70
2022-07-31T17:09:22.177Z,96.69
2022-07-31T17:11:51.677Z,97.64
2022-07-31T17:14:20.855Z,96.15
2022-07-31T17:16:49.435Z,94.93
2022-07-31T17:19:40.990Z,96.52
2022-07-31T17:22:05.010Z,97.89
2022-07-31T17:24:31.942Z,99.02
2022-07-31T17:26:59.832Z,98.79
2022-07-31T17:29:26.555Z,94.88
2022-07-31T17:31:53.224Z,91.80
2022-07-31T17:34:19.898Z,91.79
2022-07-31T17:36:50.083Z,92.46
2022-07-31T17:39:17.254Z,92.17
2022-07-31T17:41:44.225Z,93.20
2022-07-31T17:44:10.967Z,94.57
2022-07-31T17:46:48.122Z,92.24
2022-07-31T17:49:19.227Z,94.05
2022-07-31T17:51:57.907Z,94.65
2022-07-31T17:54:33.274Z,93.15
2022-07-31T17:56:59.999Z,95.64
2022-07-31T17:59:27.271Z,95.18
2022-07-31T18:01:59.891Z,95.67
2022-07-31T18:04:31.536Z,96.44
2022-07-31T18:06:59.429Z,95.88
2022-07-31T18:09:27.341Z,96.54
2022-07-31T18:11:56.918Z,95.74
2022-07-31T18:14:24.928Z,96.49
2022-07-31T18:16:52.163Z,96.11
2022-07-31T18:19:21.477Z,95.33
2022-07-31T18:21:50.155Z,95.19
2022-07-31T18:24:16.869Z,90.84
2022-07-31T18:26:44.648Z,91.35
2022-07-31T18:29:11.415Z,91.76
2022-07-31T18:31:38.307Z,92.85
2022-07-31T18:34:06.171Z,92.24
2022-07-31T18:36:34.690Z,92.11
2022-07-31T18:39:01.817Z,86.36
2022-07-31T18:41:28.788Z,86.72
2022-07-31T18:43:55.724Z,85.76
2022-07-31T18:46:24.849Z,87.61
2022-07-31T18:48:55.360Z,86.48
2022-07-31T18:51:23.443Z,84.73
2022-07-31T18:53:50.587Z,84.08
2022-07-31T18:56:17.664Z,85.26
2022-07-31T18:58:44.422Z,85.18
2022-07-31T19:01:11.350Z,85.01
2022-07-31T19:03:39.824Z,82.70
2022-07-31T19:06:06.505Z,83.52
2022-07-31T19:08:33.475Z,84.67
2022-07-31T19:11:00.196Z,84.76
2022-07-31T19:13:26.977Z,81.87
2022-07-31T19:15:53.684Z,82.16
2022-07-31T19:18:28.579Z,80.54
2022-07-31T19:21:21.149Z,79.33
2022-07-31T19:23:44.148Z,79.53
2022-07-31T19:26:11.515Z,79.07
2022-07-31T19:28:39.882Z,77.96
2022-07-31T19:31:07.189Z,76.77
2022-07-31T19:33:33.953Z,75.00
2022-07-31T19:36:02.557Z,73.98
2022-07-31T19:38:38.102Z,72.94
2022-07-31T19:41:05.322Z,71.84
2022-07-31T19:43:33.187Z,71.14
2022-07-31T19:46:11.221Z,70.25
2022-07-31T19:48:44.998Z,67.79
2022-07-31T19:51:13.285Z,67.52
2022-07-31T19:53:40.183Z,68.72
2022-07-31T19:56:07.284Z,66.87
2022-07-31T19:58:35.666Z,67.84
2022-07-31T20:01:06.002Z,68.49
2022-07-31T20:03:33.425Z,64.40
2022-07-31T20:06:00.393Z,66.49
2022-07-31T20:08:27.083Z,65.52
2022-07-31T20:10:57.764Z,64.53
2022-07-31T20:13:24.415Z,65.19
2022-07-31T20:15:53.146Z,64.41
2022-07-31T20:18:27.460Z,64.77
2022-07-31T20:21:04.903Z,63.29
2022-07-31T20:23:34.277Z,63.10
2022-07-31T20:26:01.461Z,61.79
2022-07-31T20:28:28.283Z,62.87
2022-07-31T20:30:54.940Z,63.16
2022-07-31T20:33:21.642Z,62.44
2022-07-31T20:35:50.137Z,61.66
2022-07-31T20:38:18.941Z,59.60
2022-07-31T20:40:51.138Z,60.04
2022-07-31T20:43:20.114Z,57.70
2022-07-31T20:45:47.652Z,58.49
2022-07-31T20:48:17.649Z,58.15
2022-07-31T20:50:48.222Z,56.63
2022-07-31T20:53:15.946Z,57.38
2022-07-31T20:55:46.953Z,57.68
2022-07-31T20:58:13.885Z,57.20
2022-07-31T21:00:41.121Z,66.42
2022-07-31T21:03:08.125Z,70.56
2022-07-31T21:05:34.780Z,73.05
2022-07-31T21:08:01.593Z,74.83
2022-07-31T21:10:29.796Z,76.08
2022-07-31T21:12:57.595Z,77.97
2022-07-31T21:15:40.842Z,78.86
2022-07-31T21:18:16.336Z,78.91
2022-07-31T21:20:49.714Z,80.30
2022-07-31T21:23:19.973Z,79.60
2022-07-31T21:25:46.899Z,80.13
2022-07-31T21:28:13.881Z,81.19
2022-07-31T21:30:41.360Z,81.63
2022-07-31T21:33:09.132Z,80.79
2022-07-31T21:35:37.558Z,79.58
2022-07-31T21:38:05.148Z,80.70
2022-07-31T21:40:36.178Z,80.58
2022-07-31T21:43:03.671Z,81.35
2022-07-31T21:45:43.391Z,82.04
2022-07-31T21:48:19.144Z,82.58
2022-07-31T21:50:46.780Z,82.66
2022-07-31T21:53:14.139Z,82.31
2022-07-31T21:55:41.322Z,83.93
2022-07-31T21:58:09.362Z,82.38
2022-07-31T22:00:36.997Z,82.16
2022-07-31T22:03:04.306Z,83.18
2022-07-31T22:05:49.568Z,83.09
2022-07-31T22:08:16.753Z,84.48
2022-07-31T22:10:43.876Z,83.71
2022-07-31T22:13:10.915Z,83.35
2022-07-31T22:15:58.131Z,82.34
2022-07-31T22:18:26.514Z,83.69
2022-07-31T22:20:53.945Z,85.09
2022-07-31T22:23:20.812Z,84.17
2022-07-31T22:25:49.186Z,85.37
2022-07-31T22:28:20.291Z,84.12
2022-07-31T22:30:48.213Z,85.11
2022-07-31T22:33:15.503Z,85.01
2022-07-31T22:35:43.193Z,84.54
2022-07-31T22:38:11.657Z,84.38
2022-07-31T22:40:38.781Z,84.83
2022-07-31T22:43:08.314Z,85.07
2022-07-31T22:45:54.181Z,85.00
2022-07-31T22:48:24.475Z,84.35
2022-07-31T22:50:51.333Z,84.56
2022-07-31T22:53:18.218Z,85.50
2022-07-31T22:55:45.078Z,86.76
2022-07-31T22:58:15.135Z,85.65
2022-07-31T23:00:42.946Z,86.40
2022-07-31T23:03:09.715Z,84.33
2022-07-31T23:06:02.465Z,84.28
2022-07-31T23:08:23.245Z,85.23
2022-07-31T23:10:49.959Z,85.81
2022-07-31T23:13:16.631Z,86.36
2022-07-31T23:15:44.855Z,83.71
2022-07-31T23:18:12.001Z,85.01
2022-07-31T23:20:38.755Z,84.98
2022-07-31T23:23:05.444Z,84.88
2022-07-31T23:25:32.241Z,84.84
2022-07-31T23:27:58.856Z,80.47
2022-07-31T23:30:27.618Z,79.72
2022-07-31T23:32:55.561Z,80.72
2022-07-31T23:35:22.269Z,78.34
2022-07-31T23:37:48.993Z,75.51
2022-07-31T23:40:15.833Z,76.83
2022-07-31T23:42:42.470Z,76.57
2022-07-31T23:45:12.172Z,77.11
2022-07-31T23:47:45.194Z,76.76
2022-07-31T23:50:13.045Z,76.18
2022-07-31T23:52:39.785Z,75.70
2022-07-31T23:55:06.761Z,77.04
2022-07-31T23:57:34.834Z,77.26
